createdAt,value
2023-04-25T00:00:11.163Z,6.31
2023-04-25T00:01:11.147Z,6.31
2023-04-25T00:02:11.215Z,6.27
2023-04-25T00:03:11.249Z,6.30
2023-04-25T00:04:11.363Z,6.33
2023-04-25T00:05:11.202Z,6.31
2023-04-25T00:06:11.091Z,6.22
2023-04-25T00:07:11.083Z,6.18
2023-04-25T00:08:11.075Z,6.17
2023-04-25T00:09:11.153Z,6.14
2023-04-25T00:10:11.058Z,6.14
2023-04-25T00:11:11.049Z,6.15
2023-04-25T00:12:11.057Z,6.17
2023-04-25T00:13:11.030Z,6.15
2023-04-25T00:14:11.022Z,6.15
2023-04-25T00:15:11.032Z,6.15
2023-04-25T00:16:11.069Z,6.15
2023-04-25T00:17:10.988Z,6.14
2023-04-25T00:18:10.968Z,6.15
2023-04-25T00:19:10.958Z,6.18
2023-04-25T00:20:10.949Z,6.17
2023-04-25T00:21:10.964Z,6.18
2023-04-25T00:22:10.929Z,6.21
2023-04-25T00:23:10.914Z,6.21
2023-04-25T00:24:10.918Z,6.22
2023-04-25T00:25:10.908Z,6.19
2023-04-25T00:26:10.917Z,6.18
2023-04-25T00:27:10.891Z,6.15
2023-04-25T00:28:10.867Z,6.17
2023-04-25T00:29:10.861Z,6.21
2023-04-25T00:30:10.848Z,6.21
2023-04-25T00:31:10.874Z,6.17
2023-04-25T00:32:10.823Z,6.17
2023-04-25T00:33:10.888Z,6.18
2023-04-25T00:34:10.802Z,6.14
2023-04-25T00:35:10.789Z,6.14
2023-04-25T00:36:10.775Z,6.14
2023-04-25T00:37:10.790Z,6.12
2023-04-25T00:38:10.761Z,6.11
2023-04-25T00:39:10.759Z,6.11
2023-04-25T00:40:10.750Z,6.15
2023-04-25T00:41:10.742Z,6.15
2023-04-25T00:42:10.711Z,6.15
2023-04-25T00:43:10.725Z,6.17
2023-04-25T00:44:10.689Z,6.17
2023-04-25T00:45:10.714Z,6.21
2023-04-25T00:46:10.679Z,6.22
2023-04-25T00:47:10.672Z,6.25
2023-04-25T00:48:10.651Z,6.25
2023-04-25T00:49:10.642Z,6.22
2023-04-25T00:50:10.643Z,6.21
2023-04-25T00:51:10.628Z,6.18
2023-04-25T00:52:10.608Z,6.19
2023-04-25T00:53:10.615Z,6.17
2023-04-25T00:54:10.588Z,6.15
2023-04-25T00:55:10.599Z,6.15
2023-04-25T00:56:10.577Z,6.17
2023-04-25T00:57:10.568Z,6.12
2023-04-25T00:58:10.546Z,6.09
2023-04-25T00:59:10.552Z,6.08
2023-04-25T01:00:10.519Z,6.08
2023-04-25T01:01:10.551Z,6.04
2023-04-25T01:02:10.584Z,6.06
2023-04-25T01:03:10.612Z,6.03
2023-04-25T01:04:10.621Z,6.01
2023-04-25T01:05:10.489Z,6.01
2023-04-25T01:06:10.456Z,5.97
2023-04-25T01:07:10.474Z,6.00
2023-04-25T01:08:10.440Z,6.03
2023-04-25T01:09:10.441Z,6.03
2023-04-25T01:10:10.439Z,6.04
2023-04-25T01:11:10.412Z,6.04
2023-04-25T01:12:10.400Z,6.08
2023-04-25T01:13:10.427Z,6.08
2023-04-25T01:14:10.382Z,6.08
2023-04-25T01:15:10.376Z,6.09
2023-04-25T01:16:10.376Z,6.11
2023-04-25T01:17:10.397Z,6.09
2023-04-25T01:18:10.418Z,6.09
2023-04-25T01:19:10.327Z,6.06
2023-04-25T01:20:10.312Z,6.11
2023-04-25T01:21:10.306Z,6.09
2023-04-25T01:22:10.290Z,6.08
2023-04-25T01:23:10.287Z,6.03
2023-04-25T01:24:10.265Z,6.00
2023-04-25T01:25:10.271Z,5.99
2023-04-25T01:26:10.257Z,5.96
2023-04-25T01:27:10.256Z,5.91
2023-04-25T01:28:10.222Z,5.83
2023-04-25T01:29:10.216Z,5.81
2023-04-25T01:30:10.207Z,5.83
2023-04-25T01:31:10.194Z,5.85
2023-04-25T01:32:10.241Z,5.86
2023-04-25T01:33:10.193Z,5.81
2023-04-25T01:34:10.163Z,5.81
2023-04-25T01:35:10.185Z,5.72
2023-04-25T01:36:10.156Z,5.76
2023-04-25T01:37:10.136Z,5.79
2023-04-25T01:38:10.120Z,5.82
2023-04-25T01:39:10.120Z,5.79
2023-04-25T01:40:10.112Z,5.76
2023-04-25T01:41:10.102Z,5.76
2023-04-25T01:42:10.088Z,5.81
2023-04-25T01:43:10.066Z,5.85
2023-04-25T01:44:10.051Z,5.89
2023-04-25T01:45:10.081Z,5.93
2023-04-25T01:46:10.065Z,5.93
2023-04-25T01:47:10.031Z,5.90
2023-04-25T01:48:10.090Z,5.89
2023-04-25T01:49:10.014Z,5.90
2023-04-25T01:50:09.992Z,5.89
2023-04-25T01:51:09.993Z,5.83
2023-04-25T01:52:09.976Z,5.79
2023-04-25T01:53:09.984Z,5.74
2023-04-25T01:54:09.956Z,5.67
2023-04-25T01:55:09.940Z,5.67
2023-04-25T01:56:09.931Z,5.68
2023-04-25T01:57:09.946Z,5.68
2023-04-25T01:58:09.927Z,5.67
2023-04-25T01:59:09.917Z,5.67
2023-04-25T02:00:09.896Z,5.65
2023-04-25T02:01:09.923Z,5.61
2023-04-25T02:02:10.111Z,5.60
2023-04-25T02:03:10.142Z,5.61
2023-04-25T02:04:09.982Z,5.63
2023-04-25T02:05:09.846Z,5.65
2023-04-25T02:06:09.823Z,5.71
2023-04-25T02:07:09.826Z,5.71
2023-04-25T02:08:09.806Z,5.76
2023-04-25T02:09:09.806Z,5.78
2023-04-25T02:10:09.794Z,5.82
2023-04-25T02:11:09.783Z,5.81
2023-04-25T02:12:09.770Z,5.83
2023-04-25T02:13:09.755Z,5.83
2023-04-25T02:14:09.759Z,5.82
2023-04-25T02:15:09.748Z,5.81
2023-04-25T02:16:09.834Z,5.78
2023-04-25T02:17:09.825Z,5.76
2023-04-25T02:18:09.735Z,5.79
2023-04-25T02:19:09.701Z,5.83
2023-04-25T02:20:09.677Z,5.85
2023-04-25T02:21:09.673Z,5.91
2023-04-25T02:22:09.677Z,5.93
2023-04-25T02:23:09.662Z,5.93
2023-04-25T02:24:09.650Z,5.94
2023-04-25T02:25:09.635Z,5.93
2023-04-25T02:26:09.623Z,5.86
2023-04-25T02:27:09.618Z,5.89
2023-04-25T02:28:09.598Z,5.82
2023-04-25T02:29:09.609Z,5.76
2023-04-25T02:30:09.574Z,5.78
2023-04-25T02:31:09.626Z,5.76
2023-04-25T02:32:09.566Z,5.75
2023-04-25T02:33:09.583Z,5.76
2023-04-25T02:34:09.548Z,5.76
2023-04-25T02:35:09.551Z,5.74
2023-04-25T02:36:09.513Z,5.74
2023-04-25T02:37:09.510Z,5.71
2023-04-25T02:38:09.489Z,5.67
2023-04-25T02:39:09.499Z,5.63
2023-04-25T02:40:09.493Z,5.63
2023-04-25T02:41:09.475Z,5.60
2023-04-25T02:42:09.444Z,5.57
2023-04-25T02:43:09.450Z,5.54
2023-04-25T02:44:09.440Z,5.53
2023-04-25T02:45:09.446Z,5.54
2023-04-25T02:46:09.432Z,5.54
2023-04-25T02:47:09.476Z,5.53
2023-04-25T02:48:09.425Z,5.49
2023-04-25T02:49:09.388Z,5.51
2023-04-25T02:50:09.383Z,5.49
2023-04-25T02:51:09.375Z,5.49
2023-04-25T02:52:09.368Z,5.51
2023-04-25T02:53:09.339Z,5.49
2023-04-25T02:54:09.318Z,5.53
2023-04-25T02:55:09.320Z,5.57
2023-04-25T02:56:09.298Z,5.56
2023-04-25T02:57:09.318Z,5.58
2023-04-25T02:58:09.289Z,5.57
2023-04-25T02:59:09.273Z,5.57
2023-04-25T03:00:09.277Z,5.57
2023-04-25T03:01:09.304Z,5.57
2023-04-25T03:02:09.253Z,5.57
2023-04-25T03:03:09.358Z,5.56
2023-04-25T03:04:09.241Z,5.57
2023-04-25T03:05:09.217Z,5.57
2023-04-25T03:06:09.196Z,5.61
2023-04-25T03:07:09.194Z,5.63
2023-04-25T03:08:09.170Z,5.65
2023-04-25T03:09:09.179Z,5.67
2023-04-25T03:10:09.150Z,5.71
2023-04-25T03:11:09.152Z,5.72
2023-04-25T03:12:09.134Z,5.74
2023-04-25T03:13:09.124Z,5.74
2023-04-25T03:14:09.114Z,5.76
2023-04-25T03:15:09.112Z,5.76
2023-04-25T03:16:09.139Z,5.74
2023-04-25T03:17:09.086Z,5.78
2023-04-25T03:18:09.113Z,5.75
2023-04-25T03:19:09.082Z,5.67
2023-04-25T03:20:09.059Z,5.64
2023-04-25T03:21:09.043Z,5.60
2023-04-25T03:22:09.038Z,5.58
2023-04-25T03:23:09.022Z,5.58
2023-04-25T03:24:09.005Z,5.57
2023-04-25T03:25:08.997Z,5.58
2023-04-25T03:26:08.979Z,5.61
2023-04-25T03:27:08.979Z,5.61
2023-04-25T03:28:08.977Z,5.63
2023-04-25T03:29:08.960Z,5.64
2023-04-25T03:30:08.941Z,5.61
2023-04-25T03:31:08.936Z,5.61
2023-04-25T03:32:09.008Z,5.58
2023-04-25T03:33:08.945Z,5.61
2023-04-25T03:34:08.919Z,5.63
2023-04-25T03:35:08.911Z,5.64
2023-04-25T03:36:08.884Z,5.67
2023-04-25T03:37:08.875Z,5.65
2023-04-25T03:38:08.859Z,5.64
2023-04-25T03:39:08.888Z,5.65
2023-04-25T03:40:08.853Z,5.64
2023-04-25T03:41:08.828Z,5.65
2023-04-25T03:42:08.834Z,5.64
2023-04-25T03:43:08.820Z,5.58
2023-04-25T03:44:08.990Z,5.60
2023-04-25T03:45:08.795Z,5.63
2023-04-25T03:46:08.837Z,5.63
2023-04-25T03:47:08.772Z,5.65
2023-04-25T03:48:08.779Z,5.71
2023-04-25T03:49:08.740Z,5.65
2023-04-25T03:50:08.761Z,5.68
2023-04-25T03:51:08.732Z,5.72
2023-04-25T03:52:08.716Z,5.74
2023-04-25T03:53:08.716Z,5.74
2023-04-25T03:54:08.697Z,5.75
2023-04-25T03:55:08.702Z,5.76
2023-04-25T03:56:08.670Z,5.78
2023-04-25T03:57:08.674Z,5.79
2023-04-25T03:58:08.688Z,5.81
2023-04-25T03:59:08.641Z,5.76
2023-04-25T04:00:08.624Z,5.76
2023-04-25T04:01:08.895Z,5.76
2023-04-25T04:02:08.696Z,5.78
2023-04-25T04:03:08.775Z,5.75
2023-04-25T04:04:08.737Z,5.71
2023-04-25T04:05:08.599Z,5.72
2023-04-25T04:06:08.510Z,5.74
2023-04-25T04:07:08.570Z,5.79
2023-04-25T04:08:08.551Z,5.78
2023-04-25T04:09:08.537Z,5.78
2023-04-25T04:10:08.512Z,5.67
2023-04-25T04:11:08.527Z,5.67
2023-04-25T04:12:08.510Z,5.64
2023-04-25T04:13:08.501Z,5.64
2023-04-25T04:14:08.490Z,5.64
2023-04-25T04:15:08.480Z,5.65
2023-04-25T04:16:08.514Z,5.65
2023-04-25T04:17:08.444Z,5.65
2023-04-25T04:18:08.495Z,5.64
2023-04-25T04:19:08.422Z,5.61
2023-04-25T04:20:08.397Z,5.57
2023-04-25T04:21:08.370Z,5.61
2023-04-25T04:22:08.358Z,5.63
2023-04-25T04:23:08.327Z,5.67
2023-04-25T04:24:08.329Z,5.68
2023-04-25T04:25:08.344Z,5.67
2023-04-25T04:26:08.303Z,5.71
2023-04-25T04:27:08.301Z,5.72
2023-04-25T04:28:08.309Z,5.76
2023-04-25T04:29:08.273Z,5.76
2023-04-25T04:30:08.270Z,5.76
2023-04-25T04:31:08.285Z,5.76
2023-04-25T04:32:08.256Z,5.74
2023-04-25T04:33:08.318Z,5.74
2023-04-25T04:34:08.264Z,5.72
2023-04-25T04:35:08.220Z,5.71
2023-04-25T04:36:08.195Z,5.72
2023-04-25T04:37:08.198Z,5.75
2023-04-25T04:38:08.178Z,5.72
2023-04-25T04:39:08.180Z,5.71
2023-04-25T04:40:08.148Z,5.74
2023-04-25T04:41:08.140Z,5.65
2023-04-25T04:42:08.140Z,5.67
2023-04-25T04:43:08.113Z,5.71
2023-04-25T04:44:08.888Z,5.64
2023-04-25T04:45:08.098Z,5.63
2023-04-25T04:46:08.108Z,5.63
2023-04-25T04:47:08.092Z,5.65
2023-04-25T04:48:08.249Z,5.65
2023-04-25T04:49:08.064Z,5.65
2023-04-25T04:50:08.063Z,5.63
2023-04-25T04:51:08.056Z,5.64
2023-04-25T04:52:08.024Z,5.60
2023-04-25T04:53:08.030Z,5.61
2023-04-25T04:54:08.021Z,5.63
2023-04-25T04:55:07.986Z,5.63
2023-04-25T04:56:07.999Z,5.61
2023-04-25T04:57:07.996Z,5.64
2023-04-25T04:58:07.967Z,5.61
2023-04-25T04:59:07.979Z,5.60
2023-04-25T05:00:07.942Z,5.58
2023-04-25T05:01:08.010Z,5.58
2023-04-25T05:02:07.945Z,5.58
2023-04-25T05:03:08.017Z,5.56
2023-04-25T05:04:08.249Z,5.57
2023-04-25T05:05:07.897Z,5.57
2023-04-25T05:06:07.900Z,5.57
2023-04-25T05:07:07.868Z,5.57
2023-04-25T05:08:07.903Z,5.60
2023-04-25T05:09:07.888Z,5.57
2023-04-25T05:10:07.860Z,5.57
2023-04-25T05:11:07.846Z,5.57
2023-04-25T05:12:07.823Z,5.57
2023-04-25T05:13:07.807Z,5.51
2023-04-25T05:14:07.895Z,5.48
2023-04-25T05:15:07.803Z,5.49
2023-04-25T05:16:07.893Z,5.54
2023-04-25T05:17:07.781Z,5.54
2023-04-25T05:18:07.868Z,5.51
2023-04-25T05:19:07.762Z,5.53
2023-04-25T05:20:07.759Z,5.54
2023-04-25T05:21:07.755Z,5.53
2023-04-25T05:22:07.732Z,5.49
2023-04-25T05:23:07.707Z,5.51
2023-04-25T05:24:07.710Z,5.53
2023-04-25T05:25:07.684Z,5.54
2023-04-25T05:26:07.681Z,5.57
2023-04-25T05:27:07.956Z,5.56
2023-04-25T05:28:07.652Z,5.57
2023-04-25T05:29:07.655Z,5.57
2023-04-25T05:30:07.684Z,5.58
2023-04-25T05:31:07.631Z,5.57
2023-04-25T05:32:07.705Z,5.56
2023-04-25T05:33:07.674Z,5.60
2023-04-25T05:34:07.615Z,5.61
2023-04-25T05:35:07.666Z,5.61
2023-04-25T05:36:07.590Z,5.61
2023-04-25T05:37:07.567Z,5.61
2023-04-25T05:38:07.557Z,5.58
2023-04-25T05:39:07.556Z,5.60
2023-04-25T05:40:07.530Z,5.56
2023-04-25T05:41:07.534Z,5.53
2023-04-25T05:42:07.531Z,5.56
2023-04-25T05:43:07.494Z,5.60
2023-04-25T05:44:07.518Z,5.63
2023-04-25T05:45:07.499Z,5.65
2023-04-25T05:46:07.508Z,5.71
2023-04-25T05:47:07.496Z,5.71
2023-04-25T05:48:07.532Z,5.72
2023-04-25T05:49:07.438Z,5.72
2023-04-25T05:50:07.435Z,5.72
2023-04-25T05:51:07.447Z,5.75
2023-04-25T05:52:07.402Z,5.71
2023-04-25T05:53:07.435Z,5.65
2023-04-25T05:54:07.376Z,5.67
2023-04-25T05:55:07.376Z,5.67
2023-04-25T05:56:07.365Z,5.67
2023-04-25T05:57:07.358Z,5.67
2023-04-25T05:58:07.343Z,5.71
2023-04-25T05:59:07.353Z,5.67
2023-04-25T06:00:07.324Z,5.72
2023-04-25T06:01:07.311Z,5.71
2023-04-25T06:02:07.410Z,5.74
2023-04-25T06:03:07.412Z,5.72
2023-04-25T06:04:07.439Z,5.75
2023-04-25T06:05:07.561Z,5.75
2023-04-25T06:06:07.304Z,5.78
2023-04-25T06:07:07.233Z,5.75
2023-04-25T06:08:07.240Z,5.78
2023-04-25T06:09:07.232Z,5.78
2023-04-25T06:10:07.303Z,5.82
2023-04-25T06:11:07.208Z,5.81
2023-04-25T06:12:07.200Z,5.82
2023-04-25T06:13:07.174Z,5.86
2023-04-25T06:14:07.174Z,5.86
2023-04-25T06:15:20.092Z,5.89
2023-04-25T06:16:07.201Z,5.90
2023-04-25T06:17:07.133Z,5.93
2023-04-25T06:18:07.193Z,5.91
2023-04-25T06:19:07.119Z,5.93
2023-04-25T06:20:07.208Z,5.93
2023-04-25T06:21:07.107Z,5.93
2023-04-25T06:22:07.086Z,5.94
2023-04-25T06:23:07.071Z,5.90
2023-04-25T06:24:07.064Z,5.96
2023-04-25T06:25:07.048Z,5.99
2023-04-25T06:26:07.060Z,6.00
2023-04-25T06:27:07.035Z,6.00
2023-04-25T06:28:07.035Z,6.00
2023-04-25T06:29:07.012Z,6.00
2023-04-25T06:30:07.003Z,5.97
2023-04-25T06:31:07.035Z,5.99
2023-04-25T06:32:07.009Z,5.96
2023-04-25T06:33:07.015Z,5.99
2023-04-25T06:34:06.978Z,6.00
2023-04-25T06:35:06.955Z,6.01
2023-04-25T06:36:06.963Z,6.04
2023-04-25T06:37:06.943Z,6.06
2023-04-25T06:38:06.934Z,6.06
2023-04-25T06:39:06.936Z,6.06
2023-04-25T06:40:06.908Z,6.11
2023-04-25T06:41:06.918Z,6.11
2023-04-25T06:42:06.873Z,6.08
2023-04-25T06:43:06.875Z,6.11
2023-04-25T06:44:06.889Z,6.08
2023-04-25T06:45:06.880Z,6.08
2023-04-25T06:46:06.843Z,6.06
2023-04-25T06:47:06.945Z,6.11
2023-04-25T06:48:06.861Z,6.11
2023-04-25T06:49:06.811Z,6.11
2023-04-25T06:50:06.808Z,6.12
2023-04-25T06:51:06.786Z,6.12
2023-04-25T06:52:06.770Z,6.15
2023-04-25T06:53:06.763Z,6.15
2023-04-25T06:54:06.746Z,6.19
2023-04-25T06:55:06.736Z,6.17
2023-04-25T06:56:06.740Z,6.18
2023-04-25T06:57:06.714Z,6.14
2023-04-25T06:58:06.713Z,6.14
2023-04-25T06:59:06.709Z,6.15
2023-04-25T07:00:06.736Z,6.14
2023-04-25T07:01:06.726Z,6.15
2023-04-25T07:02:06.670Z,6.18
2023-04-25T07:03:06.779Z,6.19
2023-04-25T07:04:06.762Z,6.19
2023-04-25T07:05:06.638Z,6.21
2023-04-25T07:06:06.635Z,6.21
2023-04-25T07:07:06.609Z,6.19
2023-04-25T07:08:06.639Z,6.21
2023-04-25T07:09:06.604Z,6.21
2023-04-25T07:10:06.578Z,6.21
2023-04-25T07:11:06.614Z,6.17
2023-04-25T07:12:06.575Z,6.19
2023-04-25T07:13:06.559Z,6.22
2023-04-25T07:14:06.552Z,6.22
2023-04-25T07:15:06.533Z,6.28
2023-04-25T07:16:06.575Z,6.27
2023-04-25T07:17:06.510Z,6.33
2023-04-25T07:18:06.604Z,6.33
2023-04-25T07:19:06.502Z,6.36
2023-04-25T07:20:06.518Z,6.36
2023-04-25T07:21:06.479Z,6.40
2023-04-25T07:22:06.484Z,6.40
2023-04-25T07:23:06.453Z,6.38
2023-04-25T07:24:06.438Z,6.44
2023-04-25T07:25:06.434Z,6.43
2023-04-25T07:26:06.429Z,6.44
2023-04-25T07:27:06.417Z,6.44
2023-04-25T07:28:06.412Z,6.48
2023-04-25T07:29:06.396Z,6.48
2023-04-25T07:30:06.394Z,6.46
2023-04-25T07:31:06.367Z,6.46
2023-04-25T07:32:06.422Z,6.49
2023-04-25T07:33:06.411Z,6.48
2023-04-25T07:34:06.346Z,6.46
2023-04-25T07:35:06.377Z,6.44
2023-04-25T07:36:06.308Z,6.49
2023-04-25T07:37:06.319Z,6.51
2023-04-25T07:38:06.299Z,6.49
2023-04-25T07:39:06.293Z,6.52
2023-04-25T07:40:06.341Z,6.52
2023-04-25T07:41:06.274Z,6.55
2023-04-25T07:42:06.254Z,6.54
2023-04-25T07:43:06.242Z,6.54
2023-04-25T07:44:06.238Z,6.51
2023-04-25T07:45:06.234Z,6.51
2023-04-25T07:46:06.267Z,6.46
2023-04-25T07:47:06.212Z,6.48
2023-04-25T07:48:06.253Z,6.49
2023-04-25T07:49:06.182Z,6.49
2023-04-25T07:50:06.193Z,6.48
2023-04-25T07:51:06.154Z,6.51
2023-04-25T07:52:06.144Z,6.52
2023-04-25T07:53:06.130Z,6.54
2023-04-25T07:54:06.125Z,6.56
2023-04-25T07:55:06.118Z,6.61
2023-04-25T07:56:06.120Z,6.67
2023-04-25T07:57:06.123Z,6.70
2023-04-25T07:58:06.079Z,6.71
2023-04-25T07:59:06.072Z,6.73
2023-04-25T08:00:06.079Z,6.74
2023-04-25T08:01:06.064Z,6.71
2023-04-25T08:02:06.052Z,6.74
2023-04-25T08:03:06.149Z,6.76
2023-04-25T08:04:06.222Z,6.80
2023-04-25T08:05:06.346Z,6.81
2023-04-25T08:06:08.190Z,6.80
2023-04-25T08:07:05.988Z,6.81
2023-04-25T08:08:05.980Z,6.85
2023-04-25T08:09:05.969Z,6.81
2023-04-25T08:10:05.965Z,6.81
2023-04-25T08:11:05.957Z,6.87
2023-04-25T08:12:05.945Z,6.91
2023-04-25T08:13:05.925Z,6.94
2023-04-25T08:14:05.923Z,7.02
2023-04-25T08:15:05.894Z,7.03
2023-04-25T08:16:05.897Z,7.06
2023-04-25T08:17:05.878Z,7.05
2023-04-25T08:18:05.890Z,7.06
2023-04-25T08:19:05.852Z,7.03
2023-04-25T08:20:05.851Z,7.03
2023-04-25T08:21:05.838Z,6.98
2023-04-25T08:22:05.836Z,6.97
2023-04-25T08:23:05.860Z,6.97
2023-04-25T08:24:06.479Z,7.02
2023-04-25T08:25:05.806Z,7.07
2023-04-25T08:26:05.808Z,7.09
2023-04-25T08:27:05.786Z,7.13
2023-04-25T08:28:05.786Z,7.15
2023-04-25T08:29:05.756Z,7.20
2023-04-25T08:30:05.749Z,7.21
2023-04-25T08:31:05.767Z,7.23
2023-04-25T08:32:05.734Z,7.24
2023-04-25T08:33:05.786Z,7.27
2023-04-25T08:34:05.705Z,7.27
2023-04-25T08:35:05.706Z,7.30
2023-04-25T08:36:05.715Z,7.27
2023-04-25T08:37:05.664Z,7.32
2023-04-25T08:38:05.686Z,7.35
2023-04-25T08:39:05.657Z,7.40
2023-04-25T08:40:05.635Z,7.42
2023-04-25T08:41:05.634Z,7.43
2023-04-25T08:42:05.641Z,7.43
2023-04-25T08:43:05.605Z,7.42
2023-04-25T08:44:05.588Z,7.40
2023-04-25T08:45:07.124Z,7.42
2023-04-25T08:46:05.589Z,7.43
2023-04-25T08:47:05.678Z,7.42
2023-04-25T08:48:05.555Z,7.42
2023-04-25T08:49:05.539Z,7.42
2023-04-25T08:50:05.543Z,7.39
2023-04-25T08:51:05.520Z,7.39
2023-04-25T08:52:05.502Z,7.37
2023-04-25T08:53:05.560Z,7.39
2023-04-25T08:54:10.402Z,7.43
2023-04-25T08:55:05.480Z,7.45
2023-04-25T08:56:05.469Z,7.49
2023-04-25T08:57:05.737Z,7.60
2023-04-25T08:58:05.426Z,7.60
2023-04-25T08:59:05.432Z,7.61
2023-04-25T09:00:05.437Z,7.67
2023-04-25T09:01:05.549Z,7.64
2023-04-25T09:02:05.526Z,7.63
2023-04-25T09:03:05.787Z,7.61
2023-04-25T09:04:05.540Z,7.57
2023-04-25T09:05:05.382Z,7.50
2023-04-25T09:06:05.372Z,7.46
2023-04-25T09:07:05.352Z,7.45
2023-04-25T09:08:05.339Z,7.45
2023-04-25T09:09:05.743Z,7.48
2023-04-25T09:10:05.360Z,7.46
2023-04-25T09:11:05.291Z,7.46
2023-04-25T09:12:05.278Z,7.49
2023-04-25T09:13:05.278Z,7.50
2023-04-25T09:14:05.275Z,7.48
2023-04-25T09:15:05.337Z,7.46
2023-04-25T09:16:05.275Z,7.43
2023-04-25T09:17:05.791Z,7.43
2023-04-25T09:18:05.325Z,7.43
2023-04-25T09:19:05.219Z,7.45
2023-04-25T09:20:05.200Z,7.46
2023-04-25T09:21:12.479Z,7.48
2023-04-25T09:22:05.165Z,7.45
2023-04-25T09:23:05.186Z,7.40
2023-04-25T09:24:05.150Z,7.39
2023-04-25T09:25:05.188Z,7.42
2023-04-25T09:26:05.155Z,7.45
2023-04-25T09:27:05.174Z,7.43
2023-04-25T09:28:05.115Z,7.37
2023-04-25T09:29:05.130Z,7.42
2023-04-25T09:30:05.108Z,7.46
2023-04-25T09:31:05.085Z,7.50
2023-04-25T09:32:05.138Z,7.55
2023-04-25T09:33:05.134Z,7.58
2023-04-25T09:34:05.195Z,7.61
2023-04-25T09:35:05.036Z,7.64
2023-04-25T09:36:05.049Z,7.68
2023-04-25T09:37:05.010Z,7.72
2023-04-25T09:38:05.065Z,7.72
2023-04-25T09:39:04.985Z,7.74
2023-04-25T09:40:05.012Z,7.74
2023-04-25T09:41:04.960Z,7.77
2023-04-25T09:42:04.946Z,7.79
2023-04-25T09:43:04.943Z,7.85
2023-04-25T09:44:05.116Z,7.85
2023-04-25T09:45:04.984Z,7.85
2023-04-25T09:46:04.934Z,7.85
2023-04-25T09:47:04.905Z,7.87
2023-04-25T09:48:04.985Z,7.85
2023-04-25T09:49:04.889Z,7.86
2023-04-25T09:50:04.905Z,7.90
2023-04-25T09:51:04.885Z,7.86
2023-04-25T09:52:04.860Z,7.82
2023-04-25T09:53:04.833Z,7.80
2023-04-25T09:54:04.823Z,7.77
2023-04-25T09:55:04.827Z,7.75
2023-04-25T09:56:04.815Z,7.79
2023-04-25T09:57:04.810Z,7.83
2023-04-25T09:58:04.802Z,7.86
2023-04-25T09:59:04.771Z,7.90
2023-04-25T10:00:04.787Z,7.92
2023-04-25T10:01:04.776Z,7.92
2023-04-25T10:02:04.792Z,7.90
2023-04-25T10:03:04.929Z,7.85
2023-04-25T10:04:05.060Z,7.83
2023-04-25T10:05:04.856Z,7.82
2023-04-25T10:06:04.701Z,7.86
2023-04-25T10:07:04.693Z,7.90
2023-04-25T10:08:05.321Z,8.04
2023-04-25T10:09:04.912Z,8.08
2023-04-25T10:10:04.981Z,8.18
2023-04-25T10:11:04.651Z,8.23
2023-04-25T10:12:04.691Z,8.18
2023-04-25T10:13:04.630Z,8.23
2023-04-25T10:14:04.616Z,8.22
2023-04-25T10:15:04.606Z,8.18
2023-04-25T10:16:04.676Z,8.10
2023-04-25T10:17:04.577Z,8.05
2023-04-25T10:18:04.580Z,8.02
2023-04-25T10:19:04.575Z,7.95
2023-04-25T10:20:04.569Z,7.95
2023-04-25T10:21:04.558Z,7.89
2023-04-25T10:22:04.528Z,7.83
2023-04-25T10:23:04.529Z,7.77
2023-04-25T10:24:04.505Z,7.79
2023-04-25T10:25:04.501Z,7.75
2023-04-25T10:26:04.488Z,7.74
2023-04-25T10:27:04.687Z,7.69
2023-04-25T10:28:04.457Z,7.67
2023-04-25T10:29:04.451Z,7.60
2023-04-25T10:30:04.439Z,7.53
2023-04-25T10:31:04.498Z,7.52
2023-04-25T10:32:04.488Z,7.53
2023-04-25T10:33:04.462Z,7.58
2023-04-25T10:34:04.390Z,7.57
2023-04-25T10:35:04.387Z,7.55
2023-04-25T10:36:04.376Z,7.57
2023-04-25T10:37:04.369Z,7.52
2023-04-25T10:38:04.370Z,7.53
2023-04-25T10:39:04.340Z,7.53
2023-04-25T10:40:04.341Z,7.53
2023-04-25T10:41:04.329Z,7.57
2023-04-25T10:42:04.312Z,7.61
2023-04-25T10:43:04.344Z,7.64
2023-04-25T10:44:04.296Z,7.72
2023-04-25T10:45:04.274Z,7.85
2023-04-25T10:46:04.386Z,7.92
2023-04-25T10:47:04.464Z,8.01
2023-04-25T10:48:04.286Z,8.07
2023-04-25T10:49:04.234Z,8.12
2023-04-25T10:50:04.224Z,8.16
2023-04-25T10:51:04.217Z,8.12
2023-04-25T10:52:04.208Z,8.15
2023-04-25T10:53:04.183Z,8.16
2023-04-25T10:54:04.187Z,8.12
2023-04-25T10:55:04.175Z,8.11
2023-04-25T10:56:04.150Z,8.08
2023-04-25T10:57:04.155Z,8.11
2023-04-25T10:58:04.129Z,8.07
2023-04-25T10:59:04.148Z,8.02
2023-04-25T11:00:04.117Z,7.95
2023-04-25T11:01:04.113Z,7.92
2023-04-25T11:02:04.289Z,7.85
2023-04-25T11:03:04.237Z,7.79
2023-04-25T11:04:04.274Z,7.77
2023-04-25T11:05:04.073Z,7.74
2023-04-25T11:06:04.037Z,7.71
2023-04-25T11:07:06.874Z,7.64
2023-04-25T11:08:07.860Z,7.55
2023-04-25T11:09:04.034Z,7.55
2023-04-25T11:10:03.994Z,7.53
2023-04-25T11:11:04.000Z,7.58
2023-04-25T11:12:03.998Z,7.60
2023-04-25T11:13:03.982Z,7.61
2023-04-25T11:14:03.963Z,7.67
2023-04-25T11:15:03.948Z,7.67
2023-04-25T11:16:12.615Z,7.61
2023-04-25T11:17:03.955Z,7.63
2023-04-25T11:18:03.941Z,7.68
2023-04-25T11:19:03.899Z,7.74
2023-04-25T11:20:03.897Z,7.80
2023-04-25T11:21:03.896Z,7.85
2023-04-25T11:22:03.882Z,7.89
2023-04-25T11:24:03.860Z,7.97
2023-04-25T11:25:03.834Z,8.04
2023-04-25T11:26:03.829Z,8.07
2023-04-25T11:27:03.871Z,8.16
2023-04-25T11:28:03.797Z,8.25
2023-04-25T11:29:03.830Z,8.28
2023-04-25T11:30:03.789Z,8.33
2023-04-25T11:31:03.826Z,8.37
2023-04-25T11:32:03.874Z,8.37
2023-04-25T11:33:03.890Z,8.34
2023-04-25T11:34:03.759Z,8.33
2023-04-25T11:35:03.772Z,8.34
2023-04-25T11:36:03.717Z,8.37
2023-04-25T11:37:03.716Z,8.45
2023-04-25T11:38:03.706Z,8.58
2023-04-25T11:39:03.723Z,8.68
2023-04-25T11:40:03.676Z,8.80
2023-04-25T11:41:03.720Z,8.84
2023-04-25T11:42:05.996Z,8.84
2023-04-25T11:43:03.683Z,8.83
2023-04-25T11:44:03.658Z,8.80
2023-04-25T11:45:03.651Z,8.81
2023-04-25T11:46:03.664Z,8.81
2023-04-25T11:47:03.622Z,8.76
2023-04-25T11:48:03.630Z,8.68
2023-04-25T11:49:03.614Z,8.65
2023-04-25T11:50:03.601Z,8.59
2023-04-25T11:51:03.610Z,8.56
2023-04-25T11:52:03.645Z,8.56
2023-04-25T11:53:03.538Z,8.58
2023-04-25T11:54:03.527Z,8.58
2023-04-25T11:55:03.531Z,8.56
2023-04-25T11:56:03.522Z,8.52
2023-04-25T11:57:03.503Z,8.44
2023-04-25T11:58:03.501Z,8.43
2023-04-25T11:59:03.554Z,8.38
2023-04-25T12:00:03.468Z,8.34
2023-04-25T12:01:03.469Z,8.28
2023-04-25T12:02:03.463Z,8.23
2023-04-25T12:03:03.571Z,8.22
2023-04-25T12:04:03.468Z,8.19
2023-04-25T12:05:12.121Z,8.11
2023-04-25T12:06:03.790Z,8.07
2023-04-25T12:07:03.612Z,8.02
2023-04-25T12:08:03.394Z,7.93
2023-04-25T12:09:03.393Z,7.87
2023-04-25T12:10:03.379Z,7.82
2023-04-25T12:11:03.338Z,7.74
2023-04-25T12:12:03.349Z,7.69
2023-04-25T12:13:03.362Z,7.68
2023-04-25T12:14:03.348Z,7.68
2023-04-25T12:15:03.326Z,7.67
2023-04-25T12:16:03.360Z,7.61
2023-04-25T12:17:03.304Z,7.61
2023-04-25T12:18:03.318Z,7.58
2023-04-25T12:19:03.256Z,7.58
2023-04-25T12:20:03.267Z,7.61
2023-04-25T12:21:03.252Z,7.64
2023-04-25T12:22:03.223Z,7.74
2023-04-25T12:23:03.250Z,7.80
2023-04-25T12:24:03.219Z,7.86
2023-04-25T12:25:03.204Z,7.92
2023-04-25T12:26:03.185Z,7.97
2023-04-25T12:27:03.259Z,8.04
2023-04-25T12:28:03.156Z,8.08
2023-04-25T12:29:03.181Z,8.11
2023-04-25T12:30:03.134Z,8.16
2023-04-25T12:31:03.224Z,8.18
2023-04-25T12:32:03.121Z,8.22
2023-04-25T12:33:03.163Z,8.20
2023-04-25T12:34:03.113Z,8.19
2023-04-25T12:35:03.100Z,8.20
2023-04-25T12:36:04.442Z,8.19
2023-04-25T12:37:03.079Z,8.28
2023-04-25T12:38:03.066Z,8.29
2023-04-25T12:39:03.052Z,8.34
2023-04-25T12:40:03.037Z,8.36
2023-04-25T12:41:03.054Z,8.33
2023-04-25T12:42:03.004Z,8.36
2023-04-25T12:43:03.013Z,8.29
2023-04-25T12:44:02.983Z,8.30
2023-04-25T12:45:03.019Z,8.29
2023-04-25T12:46:02.971Z,8.25
2023-04-25T12:47:03.019Z,8.22
2023-04-25T12:48:04.262Z,8.19
2023-04-25T12:49:15.269Z,8.15
2023-04-25T12:50:02.963Z,8.11
2023-04-25T12:51:02.921Z,8.15
2023-04-25T12:52:02.899Z,8.12
2023-04-25T12:53:02.900Z,8.15
2023-04-25T12:54:02.874Z,8.18
2023-04-25T12:55:02.893Z,8.19
2023-04-25T12:56:02.878Z,8.25
2023-04-25T12:57:02.862Z,8.30
2023-04-25T12:58:02.842Z,8.40
2023-04-25T12:59:02.854Z,8.58
2023-04-25T13:00:02.830Z,8.65
2023-04-25T13:01:02.854Z,8.65
2023-04-25T13:02:02.851Z,8.66
2023-04-25T13:03:02.875Z,8.63
2023-04-25T13:04:03.009Z,8.63
2023-04-25T13:05:02.777Z,8.68
2023-04-25T13:06:02.790Z,8.81
2023-04-25T13:07:02.745Z,8.92
2023-04-25T13:08:02.757Z,9.02
2023-04-25T13:09:02.742Z,9.11
2023-04-25T13:10:02.716Z,9.13
2023-04-25T13:11:02.710Z,9.14
2023-04-25T13:12:02.708Z,9.17
2023-04-25T13:13:02.668Z,9.20
2023-04-25T13:14:02.689Z,9.20
2023-04-25T13:15:02.658Z,9.26
2023-04-25T13:16:02.838Z,9.31
2023-04-25T13:17:02.847Z,9.35
2023-04-25T13:18:02.744Z,9.47
2023-04-25T13:19:02.617Z,9.57